Time;durP1;ratioP1;P1;durP2;ratioP2;P2;SDS_P1;SDS_P2;PMS_P1;PMS_P2;Temp;Humidity;BMP_temperature;BMP_pressure;BME280_temperature;BME280_humidity;BME280_pressure;Samples;Min_cycle;Max_cycle;Signal;HPM_P1;HPM_P2
2023/08/29 00:00:21;;;;;;;3.22;1.40;;;;;;;14.62;100.00;100460.50;4989753;28;20079;-80
2023/08/29 00:02:48;;;;;;;6.35;1.45;;;;;;;14.63;100.00;100462.16;5002059;28;20034;-80
2023/08/29 00:05:13;;;;;;;2.92;1.20;;;;;;;14.61;100.00;100450.47;5018889;28;20040;-80
2023/08/29 00:07:39;;;;;;;3.42;1.13;;;;;;;14.62;100.00;100452.09;5033122;28;20034;-79
2023/08/29 00:10:05;;;;;;;3.47;1.30;;;;;;;14.65;100.00;100455.06;5021999;28;20087;-80
2023/08/29 00:12:32;;;;;;;1.98;1.20;;;;;;;14.63;100.00;100453.78;5005401;28;20489;-80
2023/08/29 00:14:58;;;;;;;3.25;1.45;;;;;;;14.65;100.00;100457.88;5021884;28;20052;-80
2023/08/29 00:17:24;;;;;;;2.60;1.08;;;;;;;14.63;100.00;100450.97;4988865;28;20043;-80
2023/08/29 00:19:49;;;;;;;3.55;1.17;;;;;;;14.61;100.00;100445.69;5005121;28;20417;-80
2023/08/29 00:22:15;;;;;;;3.35;1.20;;;;;;;14.61;100.00;100447.69;4985523;28;20030;-80
2023/08/29 00:24:43;;;;;;;2.78;1.10;;;;;;;14.59;100.00;100447.97;5008981;28;20030;-79
2023/08/29 00:27:10;;;;;;;2.42;1.00;;;;;;;14.62;100.00;100438.94;5018662;28;20493;-79
2023/08/29 00:29:35;;;;;;;4.28;1.35;;;;;;;14.60;100.00;100443.22;5001798;28;20057;-79
2023/08/29 00:32:01;;;;;;;5.97;1.65;;;;;;;14.56;100.00;100439.44;5001413;28;20030;-80
2023/08/29 00:34:26;;;;;;;3.05;1.30;;;;;;;14.52;100.00;100437.28;5018034;28;20026;-80
2023/08/29 00:36:52;;;;;;;2.67;1.40;;;;;;;14.52;100.00;100431.69;5001642;28;20025;-80
2023/08/29 00:39:17;;;;;;;2.90;1.45;;;;;;;14.48;100.00;100432.63;5037620;28;20025;-80
2023/08/29 00:41:45;;;;;;;2.38;1.45;;;;;;;14.48;100.00;100436.22;5001143;28;20038;-79
2023/08/29 00:44:10;;;;;;;4.05;1.10;;;;;;;14.42;100.00;100434.72;5029666;28;20497;-80
2023/08/29 00:46:36;;;;;;;3.10;1.48;;;;;;;14.37;100.00;100434.03;5020865;28;20037;-80
2023/08/29 00:49:01;;;;;;;2.53;1.33;;;;;;;14.35;100.00;100433.53;5020710;28;20087;-80
2023/08/29 00:51:27;;;;;;;4.10;1.35;;;;;;;14.30;100.00;100428.94;5000510;28;20088;-80
2023/08/29 00:53:52;;;;;;;2.45;1.58;;;;;;;14.27;100.00;100422.03;5025433;28;20481;-80
2023/08/29 00:56:18;;;;;;;3.13;1.45;;;;;;;14.26;100.00;100417.59;5001014;28;20033;-80
2023/08/29 00:58:43;;;;;;;3.97;1.30;;;;;;;14.19;100.00;100421.97;5009862;28;20030;-79
2023/08/29 01:01:09;;;;;;;4.38;1.60;;;;;;;14.17;100.00;100419.50;5034412;28;20496;-80
2023/08/29 01:03:35;;;;;;;2.17;1.30;;;;;;;14.09;100.00;100415.50;4984713;28;20386;-80
2023/08/29 01:06:00;;;;;;;3.53;1.50;;;;;;;14.06;100.00;100416.13;5038214;28;20028;-80
2023/08/29 01:08:26;;;;;;;4.43;1.58;;;;;;;14.01;100.00;100412.66;5026926;28;20030;-80
2023/08/29 01:10:51;;;;;;;2.97;1.17;;;;;;;14.01;100.00;100412.66;5025561;28;20036;-80
2023/08/29 01:13:39;;;;;;;2.88;1.63;;;;;;;13.94;100.00;100406.72;5017169;28;20029;-79
2023/08/29 01:16:05;;;;;;;1.60;1.33;;;;;;;13.91;100.00;100404.56;5000848;28;20478;-80
2023/08/29 01:18:31;;;;;;;3.85;1.45;;;;;;;13.89;100.00;100415.22;4995252;28;20041;-80
2023/08/29 01:21:06;;;;;;;5.20;1.40;;;;;;;13.84;100.00;100416.16;5021089;28;20034;-80
2023/08/29 01:23:40;;;;;;;4.32;1.40;;;;;;;13.77;100.00;100413.03;4999451;28;20029;-80
2023/08/29 01:26:10;;;;;;;4.78;1.50;;;;;;;13.74;100.00;100413.66;5001205;28;20182;-80
2023/08/29 01:28:36;;;;;;;3.20;1.25;;;;;;;13.70;100.00;100412.63;5033309;28;20091;-80
2023/08/29 01:31:01;;;;;;;3.72;1.60;;;;;;;13.68;100.00;100417.69;5003839;28;20049;-80
2023/08/29 01:33:27;;;;;;;5.40;1.63;;;;;;;13.68;100.00;100412.13;5019892;28;20033;-80
2023/08/29 01:35:52;;;;;;;3.42;1.52;;;;;;;13.67;100.00;100413.25;5000599;28;20391;-80
2023/08/29 01:38:18;;;;;;;5.03;1.80;;;;;;;13.59;100.00;100417.63;5029863;28;20056;-79
2023/08/29 01:40:44;;;;;;;3.75;1.40;;;;;;;13.59;100.00;100412.88;4994697;28;20032;-80
2023/08/29 01:43:09;;;;;;;2.08;1.25;;;;;;;13.51;100.00;100407.22;5020162;28;20044;-80
2023/08/29 01:45:35;;;;;;;4.93;1.30;;;;;;;13.48;100.00;100405.06;5019997;28;20029;-80
2023/08/29 01:48:01;;;;;;;3.95;1.70;;;;;;;13.47;100.00;100404.25;5000004;28;20038;-80
2023/08/29 01:50:27;;;;;;;4.07;1.33;;;;;;;13.42;100.00;100398.78;5011181;28;20541;-80
2023/08/29 01:52:53;;;;;;;3.53;1.40;;;;;;;13.39;100.00;100399.44;5008077;28;20059;-80
2023/08/29 01:55:18;;;;;;;2.75;1.30;;;;;;;13.39;100.00;100385.47;5044936;28;20030;-79
2023/08/29 01:57:43;;;;;;;4.15;1.40;;;;;;;13.32;100.00;100391.50;5001350;28;20037;-80
2023/08/29 02:00:10;;;;;;;5.30;1.70;;;;;;;13.35;100.00;100390.88;5009225;28;20056;-80
2023/08/29 02:02:35;;;;;;;4.55;1.80;;;;;;;13.32;100.00;100397.09;4987033;28;20071;-79
2023/08/29 02:05:00;;;;;;;2.10;1.35;;;;;;;13.29;100.00;100396.88;5015484;28;20022;-80
2023/08/29 02:07:26;;;;;;;3.08;1.40;;;;;;;13.24;100.00;100392.22;5016323;28;20041;-79
2023/08/29 02:09:51;;;;;;;4.40;1.40;;;;;;;13.22;100.00;100391.72;5036209;28;20030;-80
2023/08/29 02:12:17;;;;;;;4.50;1.30;;;;;;;13.18;100.00;100397.09;5019586;28;20041;-79
2023/08/29 02:14:42;;;;;;;3.55;1.50;;;;;;;13.17;100.00;100403.78;5016250;28;20018;-80
2023/08/29 02:17:08;;;;;;;3.75;1.50;;;;;;;13.16;100.00;100407.72;5015391;28;20033;-79
2023/08/29 02:19:33;;;;;;;2.90;1.45;;;;;;;13.14;100.00;100404.44;5019786;28;20137;-80
2023/08/29 02:21:59;;;;;;;2.78;1.27;;;;;;;13.13;100.00;100405.56;4986023;28;20030;-80
2023/08/29 02:24:24;;;;;;;2.55;1.55;;;;;;;13.15;100.00;100405.28;5022091;28;20029;-80
2023/08/29 02:26:50;;;;;;;4.50;1.55;;;;;;;13.12;100.00;100409.50;5018427;28;20022;-79
2023/08/29 02:29:15;;;;;;;6.40;1.73;;;;;;;13.13;100.00;100404.75;5019529;28;20064;-80
2023/08/29 02:31:41;;;;;;;3.92;1.50;;;;;;;13.12;100.00;100411.44;5003291;28;20036;-80
2023/08/29 02:34:06;;;;;;;3.55;1.42;;;;;;;13.16;100.00;100412.50;5019454;28;20022;-80
2023/08/29 02:36:32;;;;;;;6.57;1.50;;;;;;;13.12;100.00;100409.50;4985957;28;20056;-79
2023/08/29 02:38:57;;;;;;;5.32;1.98;;;;;;;13.14;100.00;100407.22;4999833;28;20026;-80
2023/08/29 02:41:23;;;;;;;2.78;1.40;;;;;;;13.15;100.00;100406.09;5003027;28;20045;-79
2023/08/29 02:43:48;;;;;;;3.05;1.35;;;;;;;13.17;100.00;100400.19;5019570;28;20439;-80
2023/08/29 02:46:14;;;;;;;3.55;1.50;;;;;;;13.14;100.00;100407.22;5019507;28;20444;-79
2023/08/29 02:48:39;;;;;;;5.32;1.30;;;;;;;13.13;100.00;100400.00;5035547;28;20025;-80
2023/08/29 02:51:05;;;;;;;3.85;1.33;;;;;;;13.12;100.00;100392.78;5018825;28;20028;-80
2023/08/29 02:53:30;;;;;;;6.35;1.30;;;;;;;13.13;100.00;100391.63;5000373;28;20037;-80
2023/08/29 02:55:56;;;;;;;3.35;1.60;;;;;;;13.13;100.00;100391.63;5035705;28;20029;-80
2023/08/29 02:58:21;;;;;;;3.00;1.60;;;;;;;13.11;100.00;100391.13;5028421;28;20033;-80
2023/08/29 03:00:50;;;;;;;3.20;1.48;;;;;;;13.11;100.00;100393.09;5030105;28;20021;-80
2023/08/29 03:03:16;;;;;;;2.28;1.30;;;;;;;13.10;100.00;100389.47;5019891;28;20036;-80
2023/08/29 03:05:42;;;;;;;2.22;1.30;;;;;;;13.10;100.00;100389.47;5014557;28;20038;-80
2023/08/29 03:08:08;;;;;;;3.92;1.33;;;;;;;13.09;100.00;100392.56;4998537;28;20033;-80
2023/08/29 03:10:37;;;;;;;2.92;1.50;;;;;;;13.09;100.00;100392.56;5035542;28;20143;-80
2023/08/29 03:13:02;;;;;;;3.35;1.58;;;;;;;13.08;100.00;100391.75;4999623;28;20025;-80
2023/08/29 03:15:34;;;;;;;4.75;1.50;;;;;;;13.09;100.00;100395.34;5014546;28;20033;-80
2023/08/29 03:18:00;;;;;;;4.25;1.60;;;;;;;13.16;100.00;100399.38;5031858;28;20477;-79
2023/08/29 03:20:25;;;;;;;5.18;2.03;;;;;;;13.11;100.00;100399.47;5009191;28;20133;-80
2023/08/29 03:22:52;;;;;;;3.42;1.60;;;;;;;13.10;100.00;100394.25;5006434;28;20080;-80
2023/08/29 03:25:20;;;;;;;4.15;1.70;;;;;;;13.11;100.00;100401.44;5019297;28;20033;-79
2023/08/29 03:27:45;;;;;;;4.78;1.60;;;;;;;13.15;100.00;100408.88;5039204;28;20034;-80
2023/08/29 03:30:11;;;;;;;3.95;1.60;;;;;;;13.13;100.00;100394.41;5005867;28;20046;-80
2023/08/29 03:32:36;;;;;;;4.97;1.63;;;;;;;13.12;100.00;100398.34;5019221;28;20552;-79
2023/08/29 03:35:02;;;;;;;6.00;1.40;;;;;;;13.15;100.00;100397.72;5019161;28;20025;-80
2023/08/29 03:37:28;;;;;;;4.43;1.65;;;;;;;13.14;100.00;100398.84;5002926;28;20034;-80
2023/08/29 03:39:55;;;;;;;2.78;1.40;;;;;;;13.14;100.00;100398.84;5019040;28;20026;-80
2023/08/29 03:42:20;;;;;;;3.17;1.42;;;;;;;13.15;100.00;100403.31;5002896;28;20038;-80
2023/08/29 03:44:45;;;;;;;3.08;1.45;;;;;;;13.18;100.00;100394.31;5002716;28;20087;-79
2023/08/29 03:47:11;;;;;;;4.95;1.52;;;;;;;13.19;100.00;100397.91;5002329;28;20041;-80
2023/08/29 03:49:36;;;;;;;6.10;1.77;;;;;;;13.17;100.00;100389.03;5002207;28;20501;-80
2023/08/29 03:52:03;;;;;;;4.68;1.40;;;;;;;13.17;100.00;100387.06;5025416;28;20034;-80
2023/08/29 03:54:29;;;;;;;5.88;1.73;;;;;;;13.20;100.00;100385.63;5022087;28;20037;-80
2023/08/29 03:56:55;;;;;;;5.22;1.63;;;;;;;13.18;100.00;100373.97;5022195;28;20032;-80
2023/08/29 03:59:20;;;;;;;4.78;1.77;;;;;;;13.18;100.00;100380.38;5005415;28;20034;-80
2023/08/29 04:01:46;;;;;;;5.45;1.92;;;;;;;13.15;100.00;100374.59;5038191;28;20123;-80
2023/08/29 04:04:11;;;;;;;2.88;1.45;;;;;;;13.13;100.00;100374.91;5004460;28;20056;-79
2023/08/29 04:06:36;;;;;;;3.92;1.70;;;;;;;13.17;100.00;100378.69;5005461;28;20036;-80
2023/08/29 04:09:07;;;;;;;3.13;1.50;;;;;;;13.13;100.00;100374.09;5021794;28;20029;-80
2023/08/29 04:11:32;;;;;;;6.20;1.65;;;;;;;13.09;100.00;100373.06;5006720;28;20033;-80
2023/08/29 04:13:58;;;;;;;6.13;1.67;;;;;;;13.05;100.00;100372.03;5021566;28;20053;-80
2023/08/29 04:16:24;;;;;;;5.80;1.65;;;;;;;13.05;100.00;100363.69;5002126;28;20056;-80
2023/08/29 04:18:50;;;;;;;4.60;1.33;;;;;;;13.00;100.00;100359.03;5018118;28;20056;-80
2023/08/29 04:21:15;;;;;;;5.78;1.70;;;;;;;13.00;100.00;100356.25;5021688;28;20163;-80
2023/08/29 04:23:41;;;;;;;2.95;1.40;;;;;;;12.95;100.00;100361.94;5021652;28;20036;-80
2023/08/29 04:26:06;;;;;;;4.22;1.67;;;;;;;12.89;100.00;100358.44;5001358;28;20045;-80
2023/08/29 04:28:32;;;;;;;6.45;1.88;;;;;;;12.85;100.00;100356.59;5034547;28;20033;-80
2023/08/29 04:31:08;;;;;;;5.80;1.80;;;;;;;12.83;100.00;100364.44;5015498;28;20496;-80
2023/08/29 04:33:34;;;;;;;2.25;1.50;;;;;;;12.78;100.00;100358.97;5005966;28;20397;-80
2023/08/29 04:35:59;;;;;;;6.28;1.67;;;;;;;12.73;100.00;100351.56;5001925;28;20022;-80
2023/08/29 04:38:24;;;;;;;5.70;1.75;;;;;;;12.73;100.00;100349.63;5018032;28;20042;-80
2023/08/29 04:40:53;;;;;;;3.97;1.42;;;;;;;12.70;100.00;100354.97;5017769;28;20029;-80
2023/08/29 04:43:18;;;;;;;3.38;1.52;;;;;;;12.65;100.00;100361.50;5004337;28;20026;-80
2023/08/29 04:45:44;;;;;;;5.47;1.45;;;;;;;12.63;100.00;100355.41;5030843;28;20041;-80
2023/08/29 04:48:10;;;;;;;6.03;1.70;;;;;;;12.60;100.00;100361.59;5020820;28;20113;-80
2023/08/29 04:50:35;;;;;;;5.05;1.70;;;;;;;12.55;100.00;100358.91;5004628;28;20033;-80
2023/08/29 04:53:01;;;;;;;3.60;1.70;;;;;;;12.53;100.00;100372.31;5002904;28;20029;-80
2023/08/29 04:55:26;;;;;;;4.43;1.80;;;;;;;12.48;100.00;100364.06;5034593;28;20025;-80
2023/08/29 04:57:54;;;;;;;2.47;1.17;;;;;;;12.50;100.00;100365.41;5020995;28;20485;-80
2023/08/29 05:00:20;;;;;;;6.28;1.77;;;;;;;12.46;100.00;100358.00;5018192;28;20394;-80
2023/08/29 05:02:45;;;;;;;5.65;1.60;;;;;;;12.46;100.00;100363.56;5049681;28;20103;-80
2023/08/29 05:05:11;;;;;;;3.22;1.58;;;;;;;12.44;100.00;100360.25;5011227;28;20033;-80
2023/08/29 05:07:36;;;;;;;3.85;1.58;;;;;;;12.48;100.00;100358.50;4987281;28;20032;-80
2023/08/29 05:10:02;;;;;;;4.60;1.70;;;;;;;12.47;100.00;100362.44;5014558;28;20371;-80
2023/08/29 05:12:27;;;;;;;4.65;1.60;;;;;;;12.48;100.00;100355.72;5017135;28;20486;-80
2023/08/29 05:14:55;;;;;;;3.95;1.85;;;;;;;12.43;100.00;100359.44;5017254;28;20022;-80
2023/08/29 05:17:21;;;;;;;3.42;1.65;;;;;;;12.45;100.00;100357.19;5030617;28;20036;-80
2023/08/29 05:19:46;;;;;;;3.45;1.50;;;;;;;12.46;100.00;100363.56;5027916;28;20041;-80
2023/08/29 05:22:12;;;;;;;5.00;1.30;;;;;;;12.49;100.00;100355.41;5004151;28;20478;-80
2023/08/29 05:24:37;;;;;;;3.85;1.65;;;;;;;12.49;100.00;100362.94;5000624;28;20026;-80
2023/08/29 05:27:03;;;;;;;4.78;1.80;;;;;;;12.50;100.00;100354.28;5018056;28;20025;-80
2023/08/29 05:29:29;;;;;;;4.93;1.60;;;;;;;12.51;100.00;100355.13;5036845;28;20095;-80
2023/08/29 05:31:54;;;;;;;4.15;1.83;;;;;;;12.49;100.00;100352.63;5018739;28;20062;-80
2023/08/29 05:34:20;;;;;;;3.47;1.67;;;;;;;12.52;100.00;100356.75;5028227;28;20026;-80
2023/08/29 05:36:46;;;;;;;4.32;1.60;;;;;;;12.52;100.00;100367.91;5020198;28;20029;-80
2023/08/29 05:39:12;;;;;;;5.63;1.90;;;;;;;12.52;100.00;100357.56;5000493;28;20460;-80
2023/08/29 05:41:37;;;;;;;3.55;1.70;;;;;;;12.56;100.00;100365.31;5000429;28;20045;-80
2023/08/29 05:44:03;;;;;;;3.35;1.70;;;;;;;12.56;100.00;100359.75;5004032;28;20029;-80
2023/08/29 05:46:29;;;;;;;3.72;1.90;;;;;;;12.57;100.00;100364.19;5003322;28;20033;-80
2023/08/29 05:48:54;;;;;;;2.90;1.65;;;;;;;12.58;100.00;100365.84;5000338;28;20034;-80
2023/08/29 05:51:20;;;;;;;3.45;1.63;;;;;;;12.61;100.00;100370.78;5017930;28;20033;-80
2023/08/29 05:53:46;;;;;;;3.13;1.52;;;;;;;12.62;100.00;100373.25;5000645;28;20370;-80
2023/08/29 05:56:11;;;;;;;6.55;1.80;;;;;;;12.64;100.00;100372.94;5034463;28;20037;-80
2023/08/29 05:58:37;;;;;;;3.53;1.67;;;;;;;12.67;100.00;100369.53;4989881;28;20033;-80
2023/08/29 06:01:06;;;;;;;3.15;1.88;;;;;;;12.72;100.00;100367.44;4999404;28;20025;-79
2023/08/29 06:03:31;;;;;;;4.75;1.80;;;;;;;12.73;100.00;100374.69;5020053;28;20075;-80
2023/08/29 06:05:57;;;;;;;4.55;1.70;;;;;;;12.78;100.00;100376.53;5016368;28;20030;-80
2023/08/29 06:08:22;;;;;;;7.10;1.60;;;;;;;12.80;100.00;100373.44;5000038;28;20033;-80
2023/08/29 06:10:48;;;;;;;4.50;1.80;;;;;;;12.86;100.00;100367.44;4999877;28;20084;-80
2023/08/29 06:13:13;;;;;;;5.88;2.03;;;;;;;12.90;100.00;100376.00;5019713;28;20064;-80
2023/08/29 06:15:39;;;;;;;4.57;1.70;;;;;;;12.93;100.00;100378.16;5019565;28;20091;-80
2023/08/29 06:18:04;;;;;;;4.15;1.77;;;;;;;12.99;100.00;100376.91;5035939;28;20049;-80
2023/08/29 06:20:31;;;;;;;6.28;1.98;;;;;;;13.03;100.00;100380.72;5019483;28;20029;-80
2023/08/29 06:22:58;;;;;;;3.42;1.88;;;;;;;13.08;100.00;100388.97;5036136;28;20044;-80
2023/08/29 06:25:27;;;;;;;2.88;1.42;;;;;;;13.17;100.00;100389.84;5019670;28;20032;-80
2023/08/29 06:27:53;;;;;;;3.58;1.90;;;;;;;13.18;100.00;100388.72;5001174;28;20029;-80
2023/08/29 06:30:18;;;;;;;4.10;1.70;;;;;;;13.21;100.00;100386.47;5016200;28;20521;-80
2023/08/29 06:32:44;;;;;;;5.50;2.03;;;;;;;13.22;100.00;100386.13;4999884;28;20034;-80
2023/08/29 06:35:09;;;;;;;4.85;1.88;;;;;;;13.31;100.00;100384.25;5018098;28;20021;-80
2023/08/29 06:37:36;;;;;;;4.70;1.73;;;;;;;13.36;100.00;100386.94;4999924;28;20049;-80
2023/08/29 06:40:04;;;;;;;3.70;1.40;;;;;;;13.38;100.00;100383.84;5016151;28;20036;-80
2023/08/29 06:42:30;;;;;;;6.22;1.67;;;;;;;13.44;100.00;100382.56;5012361;28;20060;-80
2023/08/29 06:44:58;;;;;;;5.70;1.88;;;;;;;13.48;100.00;100377.19;5003276;28;20502;-80
2023/08/29 06:47:26;;;;;;;3.38;1.65;;;;;;;13.58;100.00;100382.50;5003320;28;20061;-80
2023/08/29 06:49:54;;;;;;;3.63;1.65;;;;;;;13.59;100.00;100382.19;5035964;28;20032;-80
2023/08/29 06:52:20;;;;;;;3.47;1.67;;;;;;;13.62;100.00;100376.00;5003854;28;20121;-80
2023/08/29 06:54:46;;;;;;;5.03;1.83;;;;;;;13.70;100.00;100382.75;5033832;28;20022;-80
2023/08/29 06:57:11;;;;;;;4.88;1.83;;;;;;;13.73;100.00;100378.50;5037081;28;20390;-80
2023/08/29 06:59:37;;;;;;;5.38;1.90;;;;;;;13.77;100.00;100388.72;4993666;28;20041;-80
2023/08/29 07:02:02;;;;;;;4.22;1.90;;;;;;;13.83;100.00;100386.63;5006650;28;20025;-80
2023/08/29 07:04:28;;;;;;;4.60;1.88;;;;;;;13.87;100.00;100384.81;5022844;28;20481;-80
2023/08/29 07:06:53;;;;;;;5.18;1.90;;;;;;;13.94;100.00;100376.84;5005750;28;20029;-81
2023/08/29 07:09:19;;;;;;;2.63;1.63;;;;;;;14.00;100.00;100383.09;5039202;28;20036;-81
2023/08/29 07:11:44;;;;;;;4.07;1.70;;;;;;;14.05;100.00;100383.78;5030815;28;20033;-81
2023/08/29 07:14:09;;;;;;;4.63;1.73;;;;;;;14.12;100.00;100385.28;5019612;28;20037;-80
2023/08/29 07:16:35;;;;;;;6.43;2.25;;;;;;;14.15;100.00;100388.28;4997997;28;20029;-81
2023/08/29 07:19:00;;;;;;;3.22;1.95;;;;;;;14.24;100.00;100382.75;4986895;28;20038;-80
2023/08/29 07:21:27;;;;;;;4.07;1.50;;;;;;;14.26;100.00;100392.44;5014178;28;20056;-81
2023/08/29 07:23:54;;;;;;;5.13;1.90;;;;;;;14.35;100.00;100383.25;5003272;28;20057;-80
2023/08/29 07:26:20;;;;;;;5.30;2.38;;;;;;;14.44;100.00;100387.75;5011608;28;20084;-80
2023/08/29 07:28:45;;;;;;;3.85;1.83;;;;;;;14.47;100.00;100392.69;5019421;28;20033;-80
2023/08/29 07:31:10;;;;;;;5.40;2.08;;;;;;;14.53;100.00;100385.00;5028256;28;20347;-80
2023/08/29 07:33:36;;;;;;;4.03;1.77;;;;;;;14.59;100.00;100380.09;5009982;28;20061;-80
2023/08/29 07:36:02;;;;;;;4.88;1.88;;;;;;;14.66;100.00;100377.66;5022833;28;20026;-80
2023/08/29 07:38:27;;;;;;;3.92;1.92;;;;;;;14.72;100.00;100390.31;5022485;28;20056;-79
2023/08/29 07:40:53;;;;;;;5.63;2.03;;;;;;;14.77;100.00;100384.59;5022367;28;20560;-80
2023/08/29 07:43:18;;;;;;;4.50;1.67;;;;;;;14.84;100.00;100395.28;5005936;28;20502;-80
2023/08/29 07:45:45;;;;;;;3.65;2.03;;;;;;;14.89;100.00;100381.16;5033144;28;20045;-80
2023/08/29 07:48:11;;;;;;;4.43;2.03;;;;;;;14.95;100.00;100386.25;5001536;28;20474;-80
2023/08/29 07:50:36;;;;;;;4.47;2.20;;;;;;;15.02;100.00;100384.97;5026654;28;20053;-80
2023/08/29 07:53:01;;;;;;;7.32;2.42;;;;;;;15.08;100.00;100383.66;5037403;28;20389;-80
2023/08/29 07:55:27;;;;;;;4.55;1.80;;;;;;;15.13;100.00;100392.72;5002695;28;20123;-80
2023/08/29 07:57:53;;;;;;;4.00;2.25;;;;;;;15.19;100.00;100385.78;5023744;28;20387;-79
2023/08/29 08:00:18;;;;;;;3.25;1.75;;;;;;;15.28;100.00;100387.78;5045539;28;20497;-80
2023/08/29 08:02:44;;;;;;;4.45;1.77;;;;;;;15.35;100.00;100394.53;5022936;28;20497;-80
2023/08/29 08:05:14;;;;;;;2.28;1.45;;;;;;;15.42;100.00;100389.25;5002302;28;20056;-80
2023/08/29 08:07:40;;;;;;;5.50;2.00;;;;;;;15.52;100.00;100399.31;5022275;28;20033;-80
2023/08/29 08:10:06;;;;;;;7.53;2.05;;;;;;;15.63;100.00;100405.41;5040778;28;20044;-80
2023/08/29 08:12:32;;;;;;;4.15;1.90;;;;;;;15.71;100.00;100396.19;5024380;28;20112;-79
2023/08/29 08:14:58;;;;;;;5.15;1.90;;;;;;;15.84;100.00;100400.75;5002761;28;20026;-80
2023/08/29 08:17:24;;;;;;;4.70;1.67;;;;;;;15.92;100.00;100403.88;5048765;28;20367;-80
2023/08/29 08:19:49;;;;;;;4.63;2.60;;;;;;;16.03;100.00;100396.78;5018124;28;20521;-80
2023/08/29 08:22:15;;;;;;;4.68;1.80;;;;;;;16.14;100.00;100402.84;5018481;28;20029;-80
2023/08/29 08:24:41;;;;;;;4.18;1.70;;;;;;;16.23;100.00;100398.84;5016367;28;20032;-80
2023/08/29 08:27:07;;;;;;;3.97;2.15;;;;;;;16.33;100.00;100391.25;5011390;28;20036;-80
2023/08/29 08:29:33;;;;;;;8.15;2.50;;;;;;;16.39;100.00;100393.53;5010599;28;20077;-79
2023/08/29 08:31:58;;;;;;;3.47;1.75;;;;;;;16.50;100.00;100388.38;5034184;28;20038;-80
2023/08/29 08:34:24;;;;;;;7.82;2.30;;;;;;;16.59;100.00;100380.72;5037915;28;20065;-80
2023/08/29 08:36:49;;;;;;;4.88;2.15;;;;;;;16.65;100.00;100384.97;5016910;28;20057;-79
2023/08/29 08:39:15;;;;;;;4.55;1.95;;;;;;;16.75;100.00;100379.00;5017978;28;20045;-80
2023/08/29 08:41:40;;;;;;;3.25;1.80;;;;;;;16.84;100.00;100389.38;5034400;28;20026;-80
2023/08/29 08:44:08;;;;;;;7.13;1.92;;;;;;;16.92;100.00;100394.09;4996637;28;20042;-79
2023/08/29 08:46:34;;;;;;;5.38;2.00;;;;;;;17.00;100.00;100393.22;5009618;28;20033;-79
2023/08/29 08:48:59;;;;;;;5.50;2.05;;;;;;;17.08;100.00;100389.53;5027705;28;20030;-79
2023/08/29 08:51:25;;;;;;;4.10;2.03;;;;;;;17.16;100.00;100385.84;5020743;28;20076;-79
2023/08/29 08:53:50;;;;;;;7.72;2.47;;;;;;;17.24;100.00;100383.31;5021151;28;20025;-80
2023/08/29 08:56:16;;;;;;;4.30;2.00;;;;;;;17.32;100.00;100385.22;5004612;28;20026;-76
2023/08/29 08:58:42;;;;;;;3.80;2.22;;;;;;;17.38;100.00;100390.31;5021041;28;20108;-80
2023/08/29 09:01:07;;;;;;;5.80;2.08;;;;;;;17.47;100.00;100387.44;5027416;28;20473;-80
2023/08/29 09:03:34;;;;;;;3.45;1.65;;;;;;;17.57;100.00;100386.97;5026611;28;20037;-80
2023/08/29 09:05:59;;;;;;;5.32;1.90;;;;;;;17.65;100.00;100385.28;5000778;28;20041;-80
2023/08/29 09:08:25;;;;;;;4.05;1.63;;;;;;;17.73;100.00;100383.56;5020927;28;20056;-80
2023/08/29 09:10:51;;;;;;;4.07;1.52;;;;;;;17.80;100.00;100383.81;5012250;28;20025;-80
2023/08/29 09:13:17;;;;;;;5.47;1.70;;;;;;;17.87;100.00;100384.09;5020288;28;20039;-80
2023/08/29 09:15:42;;;;;;;3.30;1.35;;;;;;;17.95;100.00;100380.38;5033338;28;20029;-80
2023/08/29 09:18:11;;;;;;;4.30;1.60;;;;;;;18.03;100.00;100382.28;5036924;28;20033;-80
2023/08/29 09:20:37;;;;;;;3.58;1.75;;;;;;;18.11;100.00;100386.16;5019660;28;20046;-80
2023/08/29 09:23:02;;;;;;;6.55;1.63;;;;;;;18.18;100.00;100388.38;5033758;28;20037;-80
2023/08/29 09:25:28;;;;;;;4.45;1.67;;;;;;;18.24;100.00;100379.38;5041776;28;20033;-80
2023/08/29 09:27:53;;;;;;;4.22;1.75;;;;;;;18.30;100.00;100383.63;5017209;28;20471;-80
2023/08/29 09:30:19;;;;;;;3.28;1.65;;;;;;;18.36;100.00;100380.56;5019392;28;20041;-80
2023/08/29 09:32:46;;;;;;;4.25;1.60;;;;;;;18.43;100.00;100378.00;4984261;28;20034;-80
2023/08/29 09:35:12;;;;;;;4.78;1.15;;;;;;;18.47;100.00;100376.94;5020856;28;20037;-80
2023/08/29 09:37:50;;;;;;;3.45;1.67;;;;;;;18.52;100.00;100379.50;5036704;28;20452;-80
2023/08/29 09:40:17;;;;;;;5.78;1.70;;;;;;;18.57;100.00;100384.09;4984449;28;20089;-80
2023/08/29 09:42:52;;;;;;;6.63;1.50;;;;;;;18.62;100.00;100383.03;5025424;28;20441;-80
2023/08/29 09:45:17;;;;;;;2.92;1.45;;;;;;;18.67;100.00;100385.63;5036770;28;20116;-80
2023/08/29 09:47:43;;;;;;;4.75;1.55;;;;;;;18.71;100.00;100381.75;5036235;28;20025;-80
2023/08/29 09:50:08;;;;;;;2.80;1.42;;;;;;;18.75;100.00;100390.34;5019930;28;20033;-80
2023/08/29 09:52:34;;;;;;;3.42;1.45;;;;;;;18.79;100.00;100394.09;5019974;28;20035;-80
2023/08/29 09:54:59;;;;;;;3.53;1.42;;;;;;;18.81;100.00;100391.75;5000241;28;20030;-80
2023/08/29 09:57:25;;;;;;;3.65;1.10;;;;;;;18.87;100.00;100403.59;5000287;28;20429;-80
2023/08/29 09:59:56;;;;;;;2.88;1.20;;;;;;;18.92;100.00;100397.72;5001537;28;20029;-80
2023/08/29 10:02:21;;;;;;;6.90;1.73;;;;;;;18.95;100.00;100397.81;4996265;28;20025;-80
2023/08/29 10:04:54;;;;;;;7.50;2.08;;;;;;;18.99;100.00;100395.13;4999385;28;20060;-80
2023/08/29 10:07:25;;;;;;;2.83;1.08;;;;;;;19.05;100.00;100396.50;5029969;28;20088;-80
2023/08/29 10:09:51;;;;;;;5.38;1.30;;;;;;;19.10;100.00;100398.28;5004107;28;20044;-80
2023/08/29 10:12:16;;;;;;;5.95;1.35;;;;;;;19.16;100.00;100396.84;5003362;28;20037;-80
2023/08/29 10:14:42;;;;;;;5.20;1.50;;;;;;;19.22;100.00;100398.22;5019736;28;20025;-80
2023/08/29 10:17:10;;;;;;;2.13;1.30;;;;;;;19.25;100.00;100397.56;5016362;28;20038;-80
2023/08/29 10:19:36;;;;;;;3.67;1.15;;;;;;;19.35;100.00;100390.59;5029475;28;20041;-81
2023/08/29 10:22:02;;;;;;;3.63;1.50;;;;;;;19.42;100.00;100388.81;5007328;28;20033;-80
2023/08/29 10:24:27;;;;;;;5.72;1.52;;;;;;;19.48;100.00;100383.75;5010275;28;20030;-80
2023/08/29 10:26:53;;;;;;;2.55;1.23;;;;;;;19.50;100.00;100381.41;5020857;28;21579;-80
2023/08/29 10:29:18;;;;;;;3.80;1.42;;;;;;;19.59;100.00;100384.06;5000413;28;20056;-80
2023/08/29 10:31:44;;;;;;;6.80;1.48;;;;;;;19.64;100.00;100381.81;5040464;28;20045;-80
2023/08/29 10:34:10;;;;;;;3.90;0.93;;;;;;;19.73;100.00;100372.41;5007228;28;20034;-80
2023/08/29 10:36:37;;;;;;;2.80;1.20;;;;;;;19.80;100.00;100370.59;5023556;28;20034;-80
2023/08/29 10:39:03;;;;;;;4.47;1.45;;;;;;;19.83;100.00;100366.25;5020042;28;20143;-80
2023/08/29 10:41:43;;;;;;;5.05;1.35;;;;;;;19.97;100.00;100351.72;5020257;28;20041;-80
2023/08/29 10:44:31;;;;;;;4.32;1.30;;;;;;;20.06;100.00;100355.22;5039867;28;20028;-80
2023/08/29 10:47:26;;;;;;;2.45;1.05;;;;;;;20.17;100.00;100349.81;5022794;28;20038;-80
2023/08/29 10:49:59;;;;;;;3.17;1.40;;;;;;;20.22;100.00;100350.38;5039352;28;20029;-80
2023/08/29 10:52:36;;;;;;;3.55;1.38;;;;;;;20.33;100.00;100356.28;4987874;28;20028;-80
2023/08/29 10:55:17;;;;;;;3.60;1.45;;;;;;;20.40;100.00;100347.22;5023734;28;20088;-80
2023/08/29 10:57:43;;;;;;;5.78;1.20;;;;;;;20.52;100.00;100350.72;5022773;28;20505;-78
2023/08/29 11:00:17;;;;;;;3.17;1.15;;;;;;;20.64;100.00;100344.19;5019894;28;20053;-78
2023/08/29 11:02:43;;;;;;;2.65;0.88;;;;;;;20.75;100.00;100345.28;5021849;28;20116;-77
2023/08/29 11:05:09;;;;;;;3.33;1.00;;;;;;;20.85;100.00;100348.72;5006556;28;20029;-77
2023/08/29 11:07:35;;;;;;;5.82;1.40;;;;;;;21.01;100.00;100338.22;5038392;28;20037;-77
2023/08/29 11:10:16;;;;;;;2.03;1.02;;;;;;;21.13;100.00;100338.06;5016776;28;20029;-78
2023/08/29 11:13:06;;;;;;;3.78;1.20;;;;;;;21.25;100.00;100339.13;5052585;28;20034;-77